Time;durP1;ratioP1;P1;durP2;ratioP2;P2;SDS_P1;SDS_P2;PMS_P1;PMS_P2;Temp;Humidity;BMP_temperature;BMP_pressure;BME280_temperature;BME280_humidity;BME280_pressure;Samples;Min_cycle;Max_cycle;Signal;HPM_P1;HPM_P2
2021/08/30 00:01:00;;;;;;;5.72;3.10;;;;;;;11.96;100.00;95268.06;5025257;28;20038;-79
2021/08/30 00:03:27;;;;;;;5.85;2.90;;;;;;;11.83;100.00;95274.03;5006353;28;20053;-79
2021/08/30 00:05:53;;;;;;;6.20;3.10;;;;;;;11.85;100.00;95267.41;5034460;28;20049;-79
2021/08/30 00:08:18;;;;;;;5.40;3.28;;;;;;;11.92;100.00;95267.84;5010879;28;20041;-79
2021/08/30 00:10:44;;;;;;;4.85;2.88;;;;;;;11.92;100.00;95267.84;5008777;28;20046;-79
2021/08/30 00:13:10;;;;;;;5.32;3.67;;;;;;;11.83;100.00;95261.59;5028758;28;20049;-79
2021/08/30 00:15:35;;;;;;;5.85;3.47;;;;;;;11.73;100.00;95259.09;5021608;28;20037;-79
2021/08/30 00:18:01;;;;;;;6.28;3.50;;;;;;;11.82;100.00;95264.53;5018350;28;20065;-78
2021/08/30 00:20:26;;;;;;;5.07;3.38;;;;;;;11.70;100.00;95267.59;5025750;28;20506;-79
2021/08/30 00:22:52;;;;;;;5.20;3.40;;;;;;;11.68;100.00;95267.06;5007781;28;20057;-79
2021/08/30 00:25:18;;;;;;;7.22;3.70;;;;;;;11.72;100.00;95257.53;5018525;28;20053;-79
2021/08/30 00:27:43;;;;;;;6.10;3.55;;;;;;;11.71;100.00;95266.50;5028975;28;20037;-78
2021/08/30 00:30:10;;;;;;;5.15;3.38;;;;;;;11.66;100.00;95263.94;5027357;28;20049;-78
2021/08/30 00:32:35;;;;;;;5.25;3.13;;;;;;;11.71;100.00;95261.22;5027453;28;20046;-78
2021/08/30 00:35:01;;;;;;;5.18;3.10;;;;;;;11.70;100.00;95264.94;5011636;28;20100;-79
2021/08/30 00:37:26;;;;;;;6.50;2.90;;;;;;;11.71;100.00;95261.22;5019791;28;20091;-78
2021/08/30 00:39:52;;;;;;;5.35;3.05;;;;;;;11.81;100.00;95255.84;5017263;28;20050;-79
2021/08/30 00:42:20;;;;;;;5.00;2.83;;;;;;;11.75;100.00;95256.97;5027933;28;20048;-79
2021/08/30 00:44:46;;;;;;;4.80;3.10;;;;;;;11.63;100.00;95254.72;5024349;28;20041;-79
2021/08/30 00:47:13;;;;;;;5.05;2.90;;;;;;;11.72;100.00;95257.53;5019482;28;20045;-79
2021/08/30 00:49:39;;;;;;;5.05;2.92;;;;;;;11.75;100.00;95256.97;5024997;28;20130;-79
2021/08/30 00:52:04;;;;;;;3.88;2.60;;;;;;;11.81;100.00;95255.84;5007098;28;20840;-80
2021/08/30 00:54:31;;;;;;;6.43;2.90;;;;;;;11.77;100.00;95254.84;5011355;28;20052;-79
2021/08/30 00:57:00;;;;;;;6.35;2.60;;;;;;;11.73;100.00;95249.34;5027826;28;20495;-78
2021/08/30 00:59:25;;;;;;;3.90;2.53;;;;;;;11.71;100.00;95250.69;5026213;28;20171;-79
2021/08/30 01:01:51;;;;;;;4.57;2.60;;;;;;;11.73;100.00;95253.84;5020644;28;20064;-78
2021/08/30 01:04:17;;;;;;;3.70;2.33;;;;;;;11.80;100.00;95251.63;5018383;28;20045;-78
2021/08/30 01:06:49;;;;;;;3.72;2.40;;;;;;;11.83;100.00;95258.97;5028493;28;20503;-78
2021/08/30 01:09:39;;;;;;;4.90;2.58;;;;;;;11.78;100.00;95245.88;5024758;28;20049;-78
2021/08/30 01:12:19;;;;;;;4.68;2.55;;;;;;;11.77;100.00;95252.19;5009277;28;20046;-79
2021/08/30 01:14:59;;;;;;;4.65;2.83;;;;;;;11.77;100.00;95245.06;5009386;28;20064;-79
2021/08/30 01:17:26;;;;;;;6.30;2.58;;;;;;;11.83;100.00;95252.94;4995358;28;20041;-78
2021/08/30 01:20:01;;;;;;;5.30;2.50;;;;;;;11.79;100.00;95247.41;5022697;28;20606;-78
2021/08/30 01:22:29;;;;;;;4.78;2.83;;;;;;;11.72;100.00;95242.50;5021014;28;20107;-79
2021/08/30 01:24:56;;;;;;;3.70;2.53;;;;;;;11.81;100.00;95240.03;5028437;28;20045;-79
2021/08/30 01:27:26;;;;;;;5.93;2.80;;;;;;;11.82;100.00;95236.31;5027205;28;20075;-78
2021/08/30 01:30:00;;;;;;;7.05;2.70;;;;;;;11.76;100.00;95240.09;5018373;28;20126;-79
2021/08/30 01:32:30;;;;;;;8.18;3.13;;;;;;;11.70;100.00;95234.09;5022065;28;20056;-78
2021/08/30 01:35:02;;;;;;;5.30;3.10;;;;;;;11.75;100.00;95235.88;5028771;28;20320;-80
2021/08/30 01:37:31;;;;;;;4.88;2.70;;;;;;;11.74;100.00;95240.38;5010279;28;20053;-83
2021/08/30 01:39:58;;;;;;;4.50;2.90;;;;;;;11.78;100.00;95227.41;5006273;28;20758;-81
2021/08/30 01:42:26;;;;;;;5.45;3.13;;;;;;;11.69;100.00;95237.00;5023741;28;20045;-80
2021/08/30 01:44:53;;;;;;;6.68;2.97;;;;;;;11.70;100.00;95239.34;4995741;28;20049;-79
2021/08/30 01:47:20;;;;;;;5.80;3.10;;;;;;;11.79;100.00;95242.16;5020187;28;20113;-79
2021/08/30 01:49:52;;;;;;;11.15;3.25;;;;;;;11.73;100.00;95243.28;5019198;28;20037;-79
2021/08/30 01:52:19;;;;;;;5.18;3.20;;;;;;;11.69;100.00;95239.66;5023967;28;20401;-79
2021/08/30 01:54:45;;;;;;;6.20;2.88;;;;;;;11.72;100.00;95231.16;5027603;28;20100;-79
2021/08/30 01:57:18;;;;;;;4.85;2.83;;;;;;;11.72;100.00;95231.97;5009983;28;20042;-78
2021/08/30 02:02:29;;;;;;;4.63;2.70;;;;;;;11.65;100.00;95230.72;5016571;28;20041;-78
2021/08/30 02:04:55;;;;;;;5.50;3.10;;;;;;;11.63;100.00;95238.16;5009664;28;20037;-79
2021/08/30 02:07:20;;;;;;;6.47;3.38;;;;;;;11.64;100.00;95223.88;5009733;28;20044;-78
2021/08/30 02:09:46;;;;;;;4.85;2.78;;;;;;;11.55;100.00;95227.16;5019686;28;20045;-79
2021/08/30 02:12:12;;;;;;;5.35;2.97;;;;;;;11.64;100.00;95221.25;5017405;28;20061;-78
2021/08/30 02:14:37;;;;;;;4.88;2.85;;;;;;;11.65;100.00;95225.47;5008694;28;20114;-79
2021/08/30 02:17:08;;;;;;;3.78;2.50;;;;;;;11.70;100.00;95228.03;5025655;28;20125;-79
2021/08/30 02:19:39;;;;;;;7.22;3.50;;;;;;;11.57;100.00;95219.75;5009237;28;20053;-79
2021/08/30 02:22:11;;;;;;;5.93;2.97;;;;;;;11.66;100.00;95219.91;5021304;28;20057;-79
2021/08/30 02:24:58;;;;;;;6.20;2.72;;;;;;;11.59;100.00;95212.34;5030722;28;20106;-77
2021/08/30 02:27:46;;;;;;;5.65;2.92;;;;;;;11.60;100.00;95218.41;5031368;28;20041;-79
2021/08/30 02:30:21;;;;;;;5.43;2.90;;;;;;;11.63;100.00;95211.78;5021968;28;20043;-79
2021/08/30 02:32:52;;;;;;;7.70;3.10;;;;;;;11.60;100.00;95213.91;5001236;28;20046;-78
2021/08/30 02:35:22;;;;;;;4.60;2.80;;;;;;;11.63;100.00;95217.06;5013111;28;20050;-78
2021/08/30 02:37:51;;;;;;;6.00;3.28;;;;;;;11.61;100.00;95204.94;5031041;28;20133;-77
2021/08/30 02:40:18;;;;;;;5.97;2.90;;;;;;;11.67;100.00;95207.53;5009737;28;20072;-78
2021/08/30 02:42:46;;;;;;;5.85;2.95;;;;;;;11.65;100.00;95214.91;5005705;28;20034;-78
2021/08/30 02:45:12;;;;;;;6.70;3.30;;;;;;;11.68;100.00;95209.06;5029976;28;20049;-79
2021/08/30 02:47:38;;;;;;;10.10;3.05;;;;;;;11.65;100.00;95201.72;5013938;28;20489;-78
2021/08/30 02:50:05;;;;;;;17.80;3.20;;;;;;;11.59;100.00;95209.72;5026934;28;20103;-79
2021/08/30 02:52:33;;;;;;;8.77;3.35;;;;;;;11.52;100.00;95206.66;5022002;28;20096;-79
2021/08/30 02:54:59;;;;;;;6.53;2.80;;;;;;;11.48;100.00;95200.38;5026038;28;20055;-79
2021/08/30 02:57:26;;;;;;;5.28;3.00;;;;;;;11.65;100.00;95199.09;5013572;28;20045;-78
2021/08/30 02:59:52;;;;;;;5.60;2.95;;;;;;;11.67;100.00;95196.97;5029002;28;20061;-79
2021/08/30 03:02:20;;;;;;;5.50;2.97;;;;;;;11.63;100.00;95195.97;5005610;28;20050;-79
2021/08/30 03:04:46;;;;;;;6.57;2.97;;;;;;;11.59;100.00;95188.63;5023160;28;20042;-78
2021/08/30 03:07:13;;;;;;;6.78;3.30;;;;;;;11.64;100.00;95192.25;5031047;28;20044;-79
2021/08/30 03:09:39;;;;;;;5.82;3.17;;;;;;;11.63;100.00;95188.84;5010028;28;20077;-78
2021/08/30 03:12:07;;;;;;;6.63;3.80;;;;;;;11.53;100.00;95187.13;4998592;28;20424;-79
2021/08/30 03:14:36;;;;;;;6.63;3.22;;;;;;;11.58;100.00;95194.97;5019318;28;20045;-79
2021/08/30 03:17:05;;;;;;;7.13;3.42;;;;;;;11.57;100.00;95177.59;5010719;28;20053;-79
2021/08/30 03:19:32;;;;;;;8.02;3.30;;;;;;;11.56;100.00;95180.50;5011550;28;20068;-78
2021/08/30 03:22:01;;;;;;;8.52;3.60;;;;;;;11.52;100.00;95177.66;5020557;28;20483;-79
2021/08/30 03:24:28;;;;;;;12.40;3.97;;;;;;;11.49;100.00;95191.38;5011407;28;20049;-79
2021/08/30 03:26:55;;;;;;;8.43;3.70;;;;;;;11.52;100.00;95184.75;5013010;28;20049;-80
2021/08/30 03:29:22;;;;;;;7.32;3.70;;;;;;;11.53;100.00;95170.53;5011726;28;20042;-79
2021/08/30 03:31:50;;;;;;;6.78;3.50;;;;;;;11.55;100.00;95177.09;4998702;28;20049;-79
2021/08/30 03:34:17;;;;;;;5.40;3.42;;;;;;;11.52;100.00;95175.03;5011391;28;20041;-79
2021/08/30 03:36:43;;;;;;;6.22;3.00;;;;;;;11.58;100.00;95179.16;5010107;28;20049;-79
2021/08/30 03:39:09;;;;;;;5.07;3.33;;;;;;;11.46;100.00;95164.81;5003460;28;20415;-79
2021/08/30 03:41:36;;;;;;;9.15;3.85;;;;;;;11.51;100.00;95173.44;5011073;28;20042;-79
2021/08/30 03:44:03;;;;;;;8.32;3.45;;;;;;;11.48;100.00;95171.38;5003437;28;20042;-79
2021/08/30 03:46:29;;;;;;;6.43;3.35;;;;;;;11.52;100.00;95168.94;5021945;28;20153;-80
2021/08/30 03:48:55;;;;;;;6.28;3.20;;;;;;;11.54;100.00;95172.09;5027849;28;20053;-80
2021/08/30 03:51:23;;;;;;;5.97;3.50;;;;;;;11.48;100.00;95168.75;5020250;28;20046;-80
2021/08/30 03:53:51;;;;;;;4.70;2.97;;;;;;;11.60;100.00;95170.97;5001760;28;20041;-79
2021/08/30 03:56:18;;;;;;;6.30;3.17;;;;;;;11.53;100.00;95176.56;5012338;28;20046;-80
2021/08/30 03:58:45;;;;;;;5.68;3.22;;;;;;;11.55;100.00;95174.47;5029227;28;20072;-80
2021/08/30 04:01:14;;;;;;;5.35;3.20;;;;;;;11.53;100.00;95171.31;5029536;28;20041;-79
2021/08/30 04:03:43;;;;;;;7.40;2.92;;;;;;;11.54;100.00;95172.88;5010509;28;20095;-78
2021/08/30 04:06:10;;;;;;;8.65;3.08;;;;;;;11.48;100.00;95179.28;5021690;28;20491;-79
2021/08/30 04:08:36;;;;;;;8.65;3.47;;;;;;;11.48;100.00;95174.03;5031837;28;20491;-79
2021/08/30 04:11:03;;;;;;;8.77;3.47;;;;;;;11.49;100.00;95174.78;5016413;28;20046;-79
2021/08/30 04:13:29;;;;;;;10.85;3.40;;;;;;;11.43;100.00;95176.72;5009021;28;20041;-80
2021/08/30 04:15:54;;;;;;;7.38;2.88;;;;;;;11.52;100.00;95175.03;5029971;28;20088;-79
2021/08/30 04:18:20;;;;;;;7.20;2.95;;;;;;;11.49;100.00;95159.75;5022405;28;20120;-78
2021/08/30 04:20:46;;;;;;;5.88;2.65;;;;;;;11.54;100.00;95162.34;5027995;28;20521;-79
2021/08/30 04:23:11;;;;;;;10.20;2.70;;;;;;;11.51;100.00;95165.53;5016820;28;20046;-79
2021/08/30 04:25:37;;;;;;;6.95;2.92;;;;;;;11.48;100.00;95158.22;5003118;28;20053;-79
2021/08/30 04:28:03;;;;;;;7.03;2.50;;;;;;;11.48;100.00;95158.22;5029815;28;20049;-79
2021/08/30 04:30:28;;;;;;;8.85;2.85;;;;;;;11.47;100.00;95154.00;5019637;28;20044;-81
2021/08/30 04:32:55;;;;;;;17.38;3.17;;;;;;;11.43;100.00;95156.44;4999074;28;20050;-78
2021/08/30 04:35:21;;;;;;;5.80;2.40;;;;;;;11.44;100.00;95151.94;5006831;28;20064;-79
2021/08/30 04:37:47;;;;;;;3.97;2.00;;;;;;;11.48;100.00;95158.22;5028607;28;20041;-80
2021/08/30 04:40:13;;;;;;;4.70;2.20;;;;;;;11.48;100.00;95150.31;5007717;28;20037;-79
2021/08/30 04:42:39;;;;;;;5.18;2.60;;;;;;;11.42;100.00;95148.78;5018937;28;20070;-79
2021/08/30 04:45:05;;;;;;;3.90;2.15;;;;;;;11.48;100.00;95150.31;5028607;28;20033;-78
2021/08/30 04:47:35;;;;;;;10.32;2.20;;;;;;;11.38;100.00;95150.44;5028164;28;20037;-78
2021/08/30 04:50:02;;;;;;;4.43;2.28;;;;;;;11.45;100.00;95150.88;5023650;28;20046;-79
2021/08/30 04:52:27;;;;;;;4.53;2.03;;;;;;;11.45;100.00;95153.50;5021323;28;20041;-78
2021/08/30 04:54:53;;;;;;;5.10;2.15;;;;;;;11.46;100.00;95155.06;5006432;28;20071;-80
2021/08/30 04:57:18;;;;;;;3.30;2.15;;;;;;;11.41;100.00;95141.97;5028851;28;20041;-79
2021/08/30 04:59:44;;;;;;;4.38;2.10;;;;;;;11.40;100.00;95148.28;5009238;28;20049;-79
2021/08/30 05:02:09;;;;;;;3.10;2.00;;;;;;;11.45;100.00;95142.97;5021175;28;20659;-80
2021/08/30 05:04:35;;;;;;;3.70;2.22;;;;;;;11.41;100.00;95141.97;5010318;28;20037;-79
2021/08/30 05:07:02;;;;;;;6.68;2.42;;;;;;;11.44;100.00;95141.41;5008315;28;20111;-77
2021/08/30 05:09:28;;;;;;;8.75;2.45;;;;;;;11.44;100.00;95141.41;5005358;28;20046;-78
2021/08/30 05:11:54;;;;;;;7.53;2.60;;;;;;;11.37;100.00;95135.69;5027536;28;20055;-79
2021/08/30 05:14:19;;;;;;;3.83;2.13;;;;;;;11.40;100.00;95133.25;5029052;28;20045;-78
2021/08/30 05:16:45;;;;;;;4.80;2.10;;;;;;;11.36;100.00;95134.88;5009680;28;20041;-78
2021/08/30 05:19:11;;;;;;;6.00;2.38;;;;;;;11.43;100.00;95139.81;5008429;28;20049;-78
2021/08/30 05:21:36;;;;;;;6.43;2.25;;;;;;;11.36;100.00;95134.13;5026588;28;20048;-78
2021/08/30 05:24:02;;;;;;;8.13;1.95;;;;;;;11.42;100.00;95138.25;5028748;28;20041;-77
2021/08/30 05:26:27;;;;;;;7.72;2.40;;;;;;;11.36;100.00;95129.63;5029471;28;20461;-78
2021/08/30 05:28:53;;;;;;;6.55;2.63;;;;;;;11.34;100.00;95131.75;5004065;28;20619;-77
2021/08/30 05:31:18;;;;;;;4.43;2.30;;;;;;;11.39;100.00;95128.28;5013342;28;20507;-78
2021/08/30 05:33:44;;;;;;;3.63;2.00;;;;;;;11.35;100.00;95128.06;5026512;28;20045;-77
2021/08/30 05:36:09;;;;;;;4.90;2.53;;;;;;;11.27;100.00;95120.78;5011171;28;20491;-77
2021/08/30 05:38:35;;;;;;;4.63;2.50;;;;;;;11.30;100.00;95124.72;5026879;28;20041;-78
2021/08/30 05:41:00;;;;;;;9.68;3.03;;;;;;;11.30;100.00;95119.44;5012577;28;20046;-78
2021/08/30 05:43:26;;;;;;;3.88;2.38;;;;;;;11.32;100.00;95122.56;5022879;28;20487;-77
2021/08/30 05:45:51;;;;;;;4.72;2.20;;;;;;;11.32;100.00;95117.31;5027542;28;20067;-77
2021/08/30 05:48:17;;;;;;;4.28;2.25;;;;;;;11.31;100.00;95113.13;5028344;28;20050;-78
2021/08/30 05:50:42;;;;;;;2.50;1.77;;;;;;;11.34;100.00;95109.91;5025417;28;20045;-77
2021/08/30 05:53:08;;;;;;;4.60;2.30;;;;;;;11.34;100.00;95110.69;5004129;28;20415;-78
2021/08/30 05:55:33;;;;;;;4.85;1.90;;;;;;;11.35;100.00;95108.81;5013282;28;20037;-77
2021/08/30 05:57:59;;;;;;;4.18;2.42;;;;;;;11.34;100.00;95115.19;5013612;28;20407;-77
2021/08/30 06:00:25;;;;;;;3.13;2.20;;;;;;;11.32;100.00;95106.75;5013730;28;20041;-78
2021/08/30 06:02:50;;;;;;;4.20;1.98;;;;;;;11.33;100.00;95103.06;5011980;28;20100;-76
2021/08/30 06:05:16;;;;;;;3.60;2.20;;;;;;;11.34;100.00;95104.66;5013523;28;20041;-77
2021/08/30 06:07:41;;;;;;;3.83;2.30;;;;;;;11.35;100.00;95100.94;5030453;28;20042;-79
2021/08/30 06:10:08;;;;;;;5.15;2.47;;;;;;;11.33;100.00;95103.06;5014145;28;20037;-78
2021/08/30 06:12:34;;;;;;;4.18;2.55;;;;;;;11.30;100.00;95098.38;5019315;28;20038;-78
2021/08/30 06:15:00;;;;;;;3.30;2.17;;;;;;;11.37;100.00;95099.56;5012696;28;20041;-78
2021/08/30 06:17:26;;;;;;;2.95;1.95;;;;;;;11.35;100.00;95098.28;5014644;28;20442;-78
2021/08/30 06:19:51;;;;;;;4.22;2.00;;;;;;;11.33;100.00;95088.03;5011942;28;20076;-77
2021/08/30 06:22:17;;;;;;;3.65;2.08;;;;;;;11.34;100.00;95104.66;5023322;28;20124;-78
2021/08/30 06:24:46;;;;;;;4.20;2.35;;;;;;;11.26;100.00;95109.47;5013184;28;20068;-79
2021/08/30 06:27:13;;;;;;;6.55;2.28;;;;;;;11.31;100.00;95094.69;5031471;28;20042;-79
2021/08/30 06:29:39;;;;;;;3.78;1.90;;;;;;;11.33;100.00;95097.81;5008424;28;20639;-79
2021/08/30 06:32:05;;;;;;;3.42;2.00;;;;;;;11.37;100.00;95098.81;4998322;28;20054;-79
2021/08/30 06:34:30;;;;;;;6.18;2.20;;;;;;;11.44;100.00;95109.78;5023525;28;20045;-88
2021/08/30 06:37:04;;;;;;;4.37;1.90;;;;;;;11.46;100.00;95118.16;4991781;28;20110;-78
2021/08/30 06:39:30;;;;;;;2.63;1.90;;;;;;;11.45;100.00;95114.00;5027064;28;20037;-78
2021/08/30 06:41:55;;;;;;;3.70;1.90;;;;;;;11.44;100.00;95100.00;5012145;28;20045;-79
2021/08/30 06:44:21;;;;;;;4.93;2.10;;;;;;;11.37;100.00;95109.34;5010819;28;20034;-78
2021/08/30 06:46:46;;;;;;;4.40;2.08;;;;;;;11.33;100.00;95103.06;5020821;28;20041;-77
2021/08/30 06:49:12;;;;;;;5.25;2.35;;;;;;;11.29;100.00;95112.59;5026619;28;20041;-76
2021/08/30 06:51:37;;;;;;;4.03;2.08;;;;;;;11.40;100.00;95108.78;5026244;28;20053;-78
2021/08/30 06:54:03;;;;;;;10.98;2.42;;;;;;;11.43;100.00;95116.09;5012344;28;20046;-78
2021/08/30 06:56:28;;;;;;;5.13;2.05;;;;;;;11.42;100.00;95101.34;5030915;28;20049;-78
2021/08/30 06:58:54;;;;;;;5.85;2.25;;;;;;;11.53;100.00;95113.31;5031107;28;20048;-78
2021/08/30 07:01:19;;;;;;;3.60;2.10;;;;;;;11.55;100.00;95111.22;5010763;28;20033;-79
2021/08/30 07:03:45;;;;;;;7.47;2.20;;;;;;;11.43;100.00;95118.75;5018590;28;20038;-77
2021/08/30 07:06:10;;;;;;;3.97;2.17;;;;;;;11.44;100.00;95122.94;5025937;28;20500;-79
2021/08/30 07:08:36;;;;;;;5.03;2.00;;;;;;;11.47;100.00;95130.28;5003551;28;20056;-79
2021/08/30 07:11:02;;;;;;;4.53;1.90;;;;;;;11.60;100.00;95129.56;5009869;28;20046;-78
2021/08/30 07:13:28;;;;;;;3.30;1.90;;;;;;;11.49;100.00;95136.03;5013435;28;20045;-77
2021/08/30 07:15:53;;;;;;;3.90;1.90;;;;;;;11.45;100.00;95148.25;5024943;28;20057;-77
2021/08/30 07:18:19;;;;;;;6.05;2.08;;;;;;;11.44;100.00;95146.66;5024949;28;20053;-77
2021/08/30 07:20:44;;;;;;;2.30;1.60;;;;;;;11.59;100.00;95159.66;5030365;28;20495;-77
2021/08/30 07:23:11;;;;;;;2.63;1.40;;;;;;;11.47;100.00;95156.63;5008393;28;20049;-79
2021/08/30 07:25:36;;;;;;;2.55;1.35;;;;;;;11.45;100.00;95161.41;5010744;28;20442;-78
2021/08/30 07:28:03;;;;;;;4.47;1.50;;;;;;;11.46;100.00;95165.59;4998135;28;20046;-78
2021/08/30 07:30:28;;;;;;;3.22;1.70;;;;;;;11.40;100.00;95166.72;5027957;28;20042;-78
2021/08/30 07:32:54;;;;;;;2.78;1.60;;;;;;;11.36;100.00;95171.00;5024830;28;20061;-78
2021/08/30 07:35:21;;;;;;;3.53;1.52;;;;;;;11.49;100.00;95180.06;5028452;28;20045;-78
2021/08/30 07:37:47;;;;;;;4.88;1.70;;;;;;;11.33;100.00;95187.38;5020889;28;20042;-78
2021/08/30 07:40:13;;;;;;;2.45;1.40;;;;;;;11.26;100.00;95188.50;5010308;28;20467;-78
2021/08/30 07:42:39;;;;;;;3.58;1.60;;;;;;;11.25;100.00;95186.94;5027968;28;20064;-79
2021/08/30 07:45:06;;;;;;;3.47;1.77;;;;;;;11.20;100.00;95189.59;5029601;28;20054;-79
2021/08/30 07:47:32;;;;;;;3.83;1.90;;;;;;;11.21;100.00;95191.19;5008341;28;20630;-79
2021/08/30 07:49:57;;;;;;;6.72;2.00;;;;;;;11.22;100.00;95198.03;5026643;28;20052;-79
2021/08/30 07:52:24;;;;;;;5.60;2.15;;;;;;;11.23;100.00;95199.59;5008598;28;22533;-79
2021/08/30 07:54:49;;;;;;;4.70;2.15;;;;;;;11.22;100.00;95202.50;5028971;28;20053;-80
2021/08/30 07:57:15;;;;;;;3.10;2.00;;;;;;;11.29;100.00;95202.16;5024964;28;20042;-81
2021/08/30 07:59:41;;;;;;;3.55;1.80;;;;;;;11.34;100.00;95204.75;5003025;28;20099;-80
2021/08/30 08:02:07;;;;;;;2.55;1.77;;;;;;;11.36;100.00;95207.88;5026226;28;20045;-80
2021/08/30 08:04:32;;;;;;;3.03;2.00;;;;;;;11.32;100.00;95207.66;5029023;28;20092;-80
2021/08/30 08:06:58;;;;;;;5.35;1.85;;;;;;;11.46;100.00;95213.03;5010839;28;20041;-79
2021/08/30 08:09:23;;;;;;;2.72;1.85;;;;;;;11.47;100.00;95214.59;5029881;28;20076;-79
2021/08/30 08:11:49;;;;;;;4.70;2.30;;;;;;;11.44;100.00;95221.22;5020576;28;20141;-81
2021/08/30 08:14:15;;;;;;;4.65;2.40;;;;;;;11.49;100.00;95217.72;5007259;28;20053;-79
2021/08/30 08:16:41;;;;;;;4.40;2.50;;;;;;;11.56;100.00;95223.44;5008247;28;20042;-79
2021/08/30 08:19:07;;;;;;;5.18;2.60;;;;;;;11.54;100.00;95225.59;5000532;28;20042;-79
2021/08/30 08:21:34;;;;;;;5.53;2.65;;;;;;;11.66;100.00;95227.03;5022790;28;20053;-79
2021/08/30 08:24:00;;;;;;;3.53;2.20;;;;;;;11.73;100.00;95235.38;5024422;28;20042;-81
2021/08/30 08:26:26;;;;;;;5.18;2.33;;;;;;;11.73;100.00;95235.38;5028265;28;20051;-81
2021/08/30 08:28:52;;;;;;;3.90;2.42;;;;;;;11.86;100.00;95231.25;5008876;28;20126;-79
2021/08/30 08:31:17;;;;;;;4.68;2.65;;;;;;;11.89;100.00;95242.00;5002299;28;20045;-81
2021/08/30 08:33:44;;;;;;;6.55;2.60;;;;;;;11.94;100.00;95244.63;5006737;28;20400;-79
2021/08/30 08:36:10;;;;;;;4.80;2.70;;;;;;;12.00;100.00;95247.22;5003406;28;20069;-78
2021/08/30 08:38:36;;;;;;;5.40;2.65;;;;;;;11.96;100.00;95247.75;5006840;28;20053;-80
2021/08/30 08:41:02;;;;;;;4.53;2.30;;;;;;;12.11;100.00;95249.41;5023954;28;20045;-79
2021/08/30 08:43:29;;;;;;;5.05;2.60;;;;;;;12.17;100.00;95242.22;5029126;28;20049;-78
2021/08/30 08:45:54;;;;;;;5.88;2.80;;;;;;;12.29;100.00;95250.47;5006056;28;20258;-83
2021/08/30 08:48:21;;;;;;;5.18;2.42;;;;;;;12.24;100.00;95253.19;5020138;28;20176;-81
2021/08/30 08:50:47;;;;;;;7.85;2.42;;;;;;;12.30;100.00;95252.03;5022497;28;20056;-80
2021/08/30 08:53:13;;;;;;;3.17;2.03;;;;;;;12.28;100.00;95259.47;5016710;28;20041;-79
2021/08/30 08:55:38;;;;;;;6.40;2.30;;;;;;;12.14;100.00;95253.34;5024959;28;20041;-81
2021/08/30 08:58:11;;;;;;;7.35;2.40;;;;;;;12.24;100.00;95263.75;5022632;28;20038;-80
2021/08/30 09:00:40;;;;;;;6.47;2.50;;;;;;;12.33;100.00;95260.47;5022145;28;20554;-79
2021/08/30 09:03:20;;;;;;;7.15;2.40;;;;;;;12.30;100.00;95257.31;5008995;28;20098;-81
2021/08/30 09:05:46;;;;;;;4.53;2.50;;;;;;;12.40;100.00;95260.91;5020427;28;20048;-83
2021/08/30 09:08:36;;;;;;;3.97;2.30;;;;;;;12.48;100.00;95268.16;5006499;28;20046;-81
2021/08/30 09:11:02;;;;;;;5.07;2.50;;;;;;;12.55;100.00;95268.56;5010050;28;20729;-82
2021/08/30 09:13:31;;;;;;;4.25;2.65;;;;;;;12.61;100.00;95262.16;5027158;28;20045;-83
2021/08/30 09:15:58;;;;;;;4.60;2.40;;;;;;;12.85;100.00;95277.09;5024662;28;20046;-82
2021/08/30 09:18:31;;;;;;;3.85;2.38;;;;;;;12.72;100.00;95285.75;5021572;28;20064;-81
2021/08/30 09:21:04;;;;;;;3.10;2.05;;;;;;;12.53;100.00;95281.28;5028573;28;20045;-81
2021/08/30 09:23:29;;;;;;;3.40;2.05;;;;;;;12.38;100.00;95284.91;5025974;28;20116;-84
2021/08/30 09:26:00;;;;;;;4.20;2.30;;;;;;;12.36;100.00;95292.34;5006406;28;20478;-82
2021/08/30 09:28:35;;;;;;;6.13;2.55;;;;;;;12.22;100.00;95292.25;5019770;28;20385;-84
2021/08/30 09:31:02;;;;;;;4.32;2.33;;;;;;;12.35;100.00;95284.72;5004132;28;20065;-83
2021/08/30 09:33:28;;;;;;;6.25;2.28;;;;;;;12.35;100.00;95295.25;5031785;28;20065;-82
2021/08/30 09:36:01;;;;;;;5.03;2.30;;;;;;;12.73;100.00;95296.03;5014302;28;20091;-81
2021/08/30 09:38:35;;;;;;;3.80;2.20;;;;;;;12.90;100.00;95294.69;5007076;28;20045;-83
2021/08/30 09:41:08;;;;;;;3.97;2.15;;;;;;;13.10;100.00;95293.56;5030727;28;20041;-82
2021/08/30 09:43:33;;;;;;;6.93;2.15;;;;;;;13.34;100.00;95288.94;5013300;28;20041;-82
2021/08/30 09:46:04;;;;;;;3.90;2.10;;;;;;;13.67;100.00;95290.75;5029757;28;20410;-82
2021/08/30 09:48:31;;;;;;;5.85;1.85;;;;;;;13.85;100.00;95292.50;5025203;28;20057;-83
2021/08/30 09:51:16;;;;;;;2.53;1.67;;;;;;;13.92;100.00;95281.53;5024708;28;20047;-83
2021/08/30 09:53:41;;;;;;;3.38;1.60;;;;;;;13.84;100.00;95279.56;5025063;28;20490;-82
2021/08/30 09:56:08;;;;;;;2.85;1.83;;;;;;;13.59;100.00;95280.84;5011811;28;20091;-84
2021/08/30 09:58:33;;;;;;;3.92;1.60;;;;;;;13.44;100.00;95282.69;5013707;28;20048;-84
2021/08/30 10:01:00;;;;;;;2.92;1.67;;;;;;;13.60;100.00;95285.06;5029408;28;20545;-83
2021/08/30 10:03:39;;;;;;;3.65;1.60;;;;;;;13.63;99.99;95268.59;5027407;28;20111;-81
2021/08/30 10:06:07;;;;;;;4.10;1.80;;;;;;;13.51;100.00;95282.31;5005452;28;20789;-82
2021/08/30 10:08:35;;;;;;;5.35;1.67;;;;;;;13.41;100.00;95290.44;5021880;28;20050;-82
2021/08/30 10:11:01;;;;;;;3.08;1.77;;;;;;;13.57;100.00;95283.78;5005227;28;20551;-86
2021/08/30 10:13:27;;;;;;;3.03;1.80;;;;;;;13.74;100.00;95277.13;5019193;28;20054;-83
2021/08/30 10:15:53;;;;;;;2.05;1.58;;;;;;;13.51;100.00;95287.59;5032139;28;20041;-83
2021/08/30 10:18:20;;;;;;;2.42;1.50;;;;;;;13.78;100.00;95283.41;5028027;28;20041;-85
2021/08/30 10:20:49;;;;;;;2.95;1.80;;;;;;;13.61;100.00;95279.47;5004758;28;20034;-84
2021/08/30 10:23:18;;;;;;;3.03;1.60;;;;;;;13.69;100.00;95289.38;5025914;28;20124;-83
2021/08/30 10:25:56;;;;;;;3.80;1.60;;;;;;;13.62;100.00;95283.69;5013114;28;20506;-85
2021/08/30 10:28:39;;;;;;;2.10;1.65;;;;;;;13.42;100.00;95289.34;5011004;28;20419;-83
2021/08/30 10:31:20;;;;;;;2.47;1.58;;;;;;;13.33;100.00;95287.38;5010350;28;20059;-83
2021/08/30 10:33:55;;;;;;;2.85;1.70;;;;;;;13.44;100.00;95297.78;5012104;28;20049;-83
2021/08/30 10:36:22;;;;;;;;;;;;;;;13.61;100.00;95300.63;5011057;28;20045;-83
2021/08/30 10:39:08;;;;;;;2.72;1.60;;;;;;;13.41;98.62;95298.38;5006028;28;19925;-80
2021/08/30 10:41:39;;;;;;;2.13;1.55;;;;;;;13.46;99.87;95296.44;5004586;28;20041;-79
2021/08/30 10:44:21;;;;;;;2.53;1.58;;;;;;;13.49;100.00;95297.72;5014303;28;20053;-79
2021/08/30 10:46:54;;;;;;;3.65;2.00;;;;;;;13.23;100.00;95302.59;5005381;28;20209;-80
2021/08/30 10:49:27;;;;;;;3.97;2.00;;;;;;;13.11;100.00;95300.44;5029846;28;20045;-79
2021/08/30 10:52:04;;;;;;;2.88;1.98;;;;;;;13.17;100.00;95315.13;5027299;28;20069;-80
2021/08/30 10:54:29;;;;;;;2.55;1.65;;;;;;;12.90;100.00;95305.25;5011628;28;20053;-80
2021/08/30 10:56:57;;;;;;;3.92;1.85;;;;;;;12.79;100.00;95315.22;5030151;28;20046;-79
2021/08/30 10:59:28;;;;;;;8.88;2.22;;;;;;;12.72;100.00;95320.84;5029404;28;20048;-81
2021/08/30 11:02:06;;;;;;;7.80;2.38;;;;;;;12.53;100.00;95323.50;5027731;28;20454;-80
2021/08/30 11:04:35;;;;;;;3.15;2.00;;;;;;;12.77;100.00;95322.63;5029088;28;20049;-80
2021/08/30 11:07:02;;;;;;;3.53;2.10;;;;;;;12.64;100.00;95324.94;5012048;28;20049;-79
2021/08/30 11:09:28;;;;;;;3.58;2.20;;;;;;;12.82;100.00;95335.75;5008280;28;20418;-78
2021/08/30 11:11:55;;;;;;;5.32;2.50;;;;;;;12.84;100.00;95328.31;5029275;28;20567;-79
2021/08/30 11:14:21;;;;;;;5.28;2.30;;;;;;;12.93;100.00;95333.72;5029989;28;20041;-84
2021/08/30 11:16:56;;;;;;;6.35;2.28;;;;;;;13.05;100.00;95328.03;5011660;28;20045;-83
2021/08/30 11:19:26;;;;;;;2.83;1.95;;;;;;;13.13;100.00;95329.97;5002602;28;20052;-84
2021/08/30 11:21:58;;;;;;;5.30;2.20;;;;;;;13.06;100.00;95340.13;5021250;28;20068;-82
2021/08/30 11:24:27;;;;;;;3.80;2.15;;;;;;;13.13;100.00;95330.78;5025306;28;20044;-82
2021/08/30 11:26:55;;;;;;;3.50;2.20;;;;;;;13.07;100.00;95336.44;5008167;28;20100;-83
2021/08/30 11:29:21;;;;;;;4.32;2.33;;;;;;;13.06;100.00;95343.59;5003229;28;20096;-82